createdAt,value
2022-10-25T00:00:51.249Z,9.711647
2022-10-25T00:01:51.347Z,9.711549
2022-10-25T00:02:51.232Z,9.711637
2022-10-25T00:03:51.237Z,9.711737
2022-10-25T00:04:51.214Z,9.711777
2022-10-25T00:05:51.210Z,9.711820
2022-10-25T00:06:51.196Z,9.711672
2022-10-25T00:07:51.185Z,9.711590
2022-10-25T00:08:51.190Z,9.711576
2022-10-25T00:09:51.171Z,9.711321
2022-10-25T00:10:51.164Z,9.711633
2022-10-25T00:11:51.161Z,9.711729
2022-10-25T00:12:51.166Z,9.711493
2022-10-25T00:13:51.154Z,9.711906
2022-10-25T00:14:51.130Z,9.711709
2022-10-25T00:15:51.133Z,9.711871
2022-10-25T00:16:51.115Z,9.711624
2022-10-25T00:17:51.121Z,9.711661
2022-10-25T00:18:51.106Z,9.711956
2022-10-25T00:19:51.101Z,9.711933
2022-10-25T00:20:51.147Z,9.711905
2022-10-25T00:21:51.091Z,9.711810
2022-10-25T00:22:51.084Z,9.711922
2022-10-25T00:23:51.082Z,9.711969
2022-10-25T00:24:51.062Z,9.712162
2022-10-25T00:25:51.052Z,9.712109
2022-10-25T00:26:51.041Z,9.712396
2022-10-25T00:27:51.042Z,9.712210
2022-10-25T00:40:52.099Z,9.711737
2022-10-25T00:41:53.105Z,9.711786
2022-10-25T00:42:52.101Z,9.711732
2022-10-25T00:43:52.085Z,9.711899
2022-10-25T00:44:52.075Z,9.711970
2022-10-25T00:45:52.133Z,9.711835
2022-10-25T00:46:52.077Z,9.711841
2022-10-25T00:47:52.055Z,9.711855
2022-10-25T00:48:53.984Z,9.711804
2022-10-25T00:49:52.044Z,9.711806
2022-10-25T00:50:52.039Z,9.711735
2022-10-25T00:51:52.020Z,9.711730
2022-10-25T00:52:52.008Z,9.711672
2022-10-25T00:53:51.995Z,9.711659
2022-10-25T00:54:53.000Z,9.711573
2022-10-25T00:55:51.994Z,9.711491
2022-10-25T00:56:51.983Z,9.711482
2022-10-25T00:57:51.995Z,9.711391
2022-10-25T00:58:51.966Z,9.711431
2022-10-25T00:59:51.976Z,9.711374
2022-10-25T01:06:38.548Z,9.711121
2022-10-25T01:07:37.666Z,9.711392
2022-10-25T01:08:37.665Z,9.711361
2022-10-25T01:09:37.657Z,9.711442
2022-10-25T01:10:37.642Z,9.710989
2022-10-25T01:11:37.635Z,9.710815
2022-10-25T01:12:37.627Z,9.711091
2022-10-25T01:13:37.623Z,9.711259
2022-10-25T01:14:37.609Z,9.711345
2022-10-25T01:15:37.616Z,9.711491
2022-10-25T01:16:37.595Z,9.711376
2022-10-25T01:17:37.598Z,9.711477
2022-10-25T01:18:37.588Z,9.711886
2022-10-25T01:19:37.573Z,9.711940
2022-10-25T01:20:37.574Z,9.711797
2022-10-25T01:21:37.550Z,9.711816
2022-10-25T01:22:37.546Z,9.711853
2022-10-25T01:23:37.541Z,9.711858
2022-10-25T01:24:37.531Z,9.711858
2022-10-25T01:25:37.538Z,9.711650
2022-10-25T01:26:37.538Z,9.711907
2022-10-25T01:27:37.516Z,9.711912
2022-10-25T01:28:37.507Z,9.711234
2022-10-25T01:29:37.495Z,9.711200
2022-10-25T01:30:37.487Z,9.711777
2022-10-25T01:31:37.492Z,9.711896
2022-10-25T01:32:37.465Z,9.711660
2022-10-25T01:33:37.464Z,9.711595
2022-10-25T01:34:37.457Z,9.711656
2022-10-25T01:35:37.442Z,9.711635
2022-10-25T01:36:37.460Z,9.711635
2022-10-25T01:37:37.458Z,9.711615
2022-10-25T01:38:37.420Z,9.711654
2022-10-25T01:39:37.420Z,9.711648
2022-10-25T01:40:37.405Z,9.711673
2022-10-25T01:41:37.404Z,9.711693
2022-10-25T01:42:37.396Z,9.711668
2022-10-25T01:43:37.375Z,9.711608
2022-10-25T01:44:37.428Z,9.711559
2022-10-25T01:45:37.361Z,9.711590
2022-10-25T01:46:38.068Z,9.711515
2022-10-25T01:47:37.351Z,9.711489
2022-10-25T01:48:37.341Z,9.711481
2022-10-25T01:49:37.343Z,9.711511
2022-10-25T01:50:37.328Z,9.711612
2022-10-25T01:51:37.317Z,9.711594
2022-10-25T01:52:37.302Z,9.711568
2022-10-25T01:53:37.299Z,9.711576
2022-10-25T01:54:37.310Z,9.711523
2022-10-25T01:55:37.286Z,9.711555
2022-10-25T01:56:37.288Z,9.711535
2022-10-25T01:57:37.271Z,9.711529
2022-10-25T01:58:37.259Z,9.711555
2022-10-25T01:59:37.256Z,9.711537
2022-10-25T02:00:37.270Z,9.711618
2022-10-25T02:01:37.453Z,9.711590
2022-10-25T02:02:37.228Z,9.711591
2022-10-25T02:03:37.215Z,9.711574
2022-10-25T02:04:37.210Z,9.711599
2022-10-25T02:05:37.211Z,9.711593
2022-10-25T02:06:37.196Z,9.711620
2022-10-25T02:07:37.222Z,9.711570
2022-10-25T02:08:37.186Z,9.711623
2022-10-25T02:09:37.167Z,9.711619
2022-10-25T02:10:37.160Z,9.711625
2022-10-25T02:11:37.174Z,9.711606
2022-10-25T02:12:37.150Z,9.711666
2022-10-25T02:13:37.141Z,9.711686
2022-10-25T02:14:37.150Z,9.711611
2022-10-25T02:15:37.117Z,9.711656
2022-10-25T02:16:37.124Z,9.711611
2022-10-25T02:17:37.112Z,9.711687
2022-10-25T02:18:37.109Z,9.711693
2022-10-25T02:19:37.095Z,9.711688
2022-10-25T02:20:37.093Z,9.711695
2022-10-25T02:21:37.075Z,9.711822
2022-10-25T02:22:37.070Z,9.711742
2022-10-25T02:23:37.055Z,9.711615
2022-10-25T02:24:37.051Z,9.711622
2022-10-25T02:25:37.049Z,9.711683
2022-10-25T02:26:37.095Z,9.711751
2022-10-25T02:27:37.022Z,9.711774
2022-10-25T02:28:37.020Z,9.711667
2022-10-25T02:29:37.011Z,9.711770
2022-10-25T02:30:37.002Z,9.711783
2022-10-25T02:31:36.999Z,9.711813
2022-10-25T02:32:37.499Z,9.711694
2022-10-25T02:33:36.976Z,9.711738
2022-10-25T02:34:36.982Z,9.711708
2022-10-25T02:35:36.961Z,9.711733
2022-10-25T02:36:36.959Z,9.711679
2022-10-25T02:37:36.942Z,9.711742
2022-10-25T02:38:36.934Z,9.711720
2022-10-25T02:39:36.928Z,9.711666
2022-10-25T02:40:36.918Z,9.711728
2022-10-25T02:41:36.928Z,9.711670
2022-10-25T02:42:36.905Z,9.711679
2022-10-25T02:43:36.891Z,9.711662
2022-10-25T02:44:37.504Z,9.711667
2022-10-25T02:45:36.878Z,9.711677
2022-10-25T02:46:36.877Z,9.711548
2022-10-25T02:47:36.867Z,9.711667
2022-10-25T02:48:36.853Z,9.711696
2022-10-25T02:49:36.855Z,9.711687
2022-10-25T02:50:36.859Z,9.711713
2022-10-25T02:51:36.835Z,9.711744
2022-10-25T02:52:36.830Z,9.711676
2022-10-25T02:53:36.816Z,9.711602
2022-10-25T02:54:36.804Z,9.711654
2022-10-25T02:55:36.798Z,9.711697
2022-10-25T02:56:36.789Z,9.711629
2022-10-25T02:57:36.788Z,9.711619
2022-10-25T02:58:36.773Z,9.711641
2022-10-25T02:59:36.763Z,9.711666
2022-10-25T03:00:36.789Z,9.711669
2022-10-25T03:01:36.766Z,9.711616
2022-10-25T03:02:36.736Z,9.711614
2022-10-25T03:03:36.729Z,9.711633
2022-10-25T03:04:37.509Z,9.711663
2022-10-25T03:05:36.724Z,9.711647
2022-10-25T03:06:36.715Z,9.711699
2022-10-25T03:07:36.696Z,9.711720
2022-10-25T03:08:36.687Z,9.711717
2022-10-25T03:09:36.688Z,9.711707
2022-10-25T03:10:36.682Z,9.711692
2022-10-25T03:11:36.666Z,9.711715
2022-10-25T03:12:36.666Z,9.711687
2022-10-25T03:13:36.656Z,9.711672
2022-10-25T03:14:36.643Z,9.711661
2022-10-25T03:15:36.637Z,9.711735
2022-10-25T03:16:37.525Z,9.711707
2022-10-25T03:17:36.633Z,9.711682
2022-10-25T03:18:36.620Z,9.711694
2022-10-25T03:19:36.604Z,9.711680
2022-10-25T03:20:36.597Z,9.711668
2022-10-25T03:21:38.765Z,9.711700
2022-10-25T03:22:36.597Z,9.711698
2022-10-25T03:23:36.588Z,9.711663
2022-10-25T03:24:36.566Z,9.711629
2022-10-25T03:25:36.573Z,9.711645
2022-10-25T03:26:36.545Z,9.711656
2022-10-25T03:27:36.548Z,9.711661
2022-10-25T03:28:36.536Z,9.711635
2022-10-25T03:29:36.520Z,9.711643
2022-10-25T03:30:36.536Z,9.711738
2022-10-25T03:31:36.506Z,9.711689
2022-10-25T03:32:36.515Z,9.711722
2022-10-25T03:33:36.496Z,9.711709
2022-10-25T03:34:36.494Z,9.711692
2022-10-25T03:35:36.474Z,9.711686
2022-10-25T03:36:36.465Z,9.711806
2022-10-25T03:37:39.017Z,9.711652
2022-10-25T03:38:36.452Z,9.711519
2022-10-25T03:39:36.445Z,9.711700
2022-10-25T03:40:36.433Z,9.711823
2022-10-25T03:41:36.430Z,9.712029
2022-10-25T03:42:36.445Z,9.711777
2022-10-25T03:43:36.409Z,9.711683
2022-10-25T03:44:36.414Z,9.711836
2022-10-25T03:45:36.394Z,9.711798
2022-10-25T03:46:36.401Z,9.711975
2022-10-25T03:47:36.385Z,9.712039
2022-10-25T03:48:36.369Z,9.711842
2022-10-25T03:49:36.369Z,9.712016
2022-10-25T03:50:36.367Z,9.712004
2022-10-25T03:51:36.345Z,9.712143
2022-10-25T03:52:36.339Z,9.712114
2022-10-25T03:53:36.337Z,9.711981
2022-10-25T03:54:37.094Z,9.712015
2022-10-25T03:55:36.317Z,9.712051
2022-10-25T03:56:36.302Z,9.712015
2022-10-25T03:57:36.297Z,9.712121
2022-10-25T03:58:36.296Z,9.712131
2022-10-25T03:59:36.280Z,9.711711
2022-10-25T04:00:36.361Z,9.711712
2022-10-25T04:01:36.386Z,9.711648
2022-10-25T04:02:36.254Z,9.711663
2022-10-25T04:03:36.250Z,9.711667
2022-10-25T04:04:36.239Z,9.711726
2022-10-25T04:05:36.241Z,9.711663
2022-10-25T04:06:36.225Z,9.711729
2022-10-25T04:07:36.215Z,9.711772
2022-10-25T04:08:36.215Z,9.711770
2022-10-25T04:09:36.200Z,9.711787
2022-10-25T04:10:37.025Z,9.711727
2022-10-25T04:11:36.187Z,9.711679
2022-10-25T04:12:36.177Z,9.711616
2022-10-25T04:13:36.168Z,9.711629
2022-10-25T04:14:36.165Z,9.711625
2022-10-25T04:15:36.155Z,9.711606
2022-10-25T04:16:36.169Z,9.711623
2022-10-25T04:17:36.139Z,9.711655
2022-10-25T04:18:36.131Z,9.711633
2022-10-25T04:19:37.105Z,9.711595
2022-10-25T04:20:36.101Z,9.711628
2022-10-25T04:21:37.129Z,9.711635
2022-10-25T04:23:36.095Z,9.711619
2022-10-25T04:24:36.078Z,9.711589
2022-10-25T04:25:36.075Z,9.711554
2022-10-25T04:26:36.072Z,9.711550
2022-10-25T04:27:36.062Z,9.711510
2022-10-25T04:28:36.044Z,9.711537
2022-10-25T04:29:36.038Z,9.711571
2022-10-25T04:30:38.086Z,9.711593
2022-10-25T04:31:36.032Z,9.711621
2022-10-25T04:32:36.020Z,9.711577
2022-10-25T04:33:36.003Z,9.711596
2022-10-25T04:34:36.004Z,9.711583
2022-10-25T04:35:36.000Z,9.711643
2022-10-25T04:36:35.976Z,9.711546
2022-10-25T04:37:35.981Z,9.711597
2022-10-25T04:38:36.532Z,9.711531
2022-10-25T04:39:35.959Z,9.711433
2022-10-25T04:40:35.970Z,9.711607
2022-10-25T04:41:36.611Z,9.711611
2022-10-25T04:42:35.927Z,9.711685
2022-10-25T04:43:35.924Z,9.711502
2022-10-25T04:44:35.912Z,9.711686
2022-10-25T04:45:35.943Z,9.711636
2022-10-25T04:46:35.897Z,9.711613
2022-10-25T04:47:35.884Z,9.711675
2022-10-25T04:48:36.878Z,9.711805
2022-10-25T04:49:35.872Z,9.711827
2022-10-25T04:50:35.860Z,9.711680
2022-10-25T04:51:35.857Z,9.711677
2022-10-25T04:52:35.857Z,9.711657
2022-10-25T04:53:36.540Z,9.711672
2022-10-25T04:54:35.830Z,9.711490
2022-10-25T04:55:35.818Z,9.711653
2022-10-25T04:56:35.810Z,9.711721
2022-10-25T04:57:35.810Z,9.711884
2022-10-25T04:58:35.795Z,9.711796
2022-10-25T04:59:35.801Z,9.711712
2022-10-25T05:00:35.779Z,9.711660
2022-10-25T05:01:35.858Z,9.711805
2022-10-25T05:02:35.838Z,9.711878
2022-10-25T05:03:35.756Z,9.711844
2022-10-25T05:04:35.748Z,9.711920
2022-10-25T05:05:35.748Z,9.711847
2022-10-25T05:06:35.732Z,9.711971
2022-10-25T05:07:35.737Z,9.711941
2022-10-25T05:08:35.716Z,9.711882
2022-10-25T05:09:35.710Z,9.711774
2022-10-25T05:10:35.717Z,9.711825
2022-10-25T05:12:35.690Z,9.711904
2022-10-25T05:13:35.680Z,9.711991
2022-10-25T05:14:35.672Z,9.711938
2022-10-25T05:15:35.670Z,9.711897
2022-10-25T05:16:35.666Z,9.711887
2022-10-25T05:17:35.652Z,9.711782
2022-10-25T05:18:35.638Z,9.711721
2022-10-25T05:19:35.642Z,9.711682
2022-10-25T05:20:35.637Z,9.711706
2022-10-25T05:21:35.624Z,9.711727
2022-10-25T05:22:35.599Z,9.711725
2022-10-25T05:23:36.185Z,9.711749
2022-10-25T05:24:35.594Z,9.711765
2022-10-25T05:25:35.663Z,9.711730
2022-10-25T05:26:35.573Z,9.711781
2022-10-25T05:27:35.562Z,9.711667
2022-10-25T05:28:35.552Z,9.711701
2022-10-25T05:29:35.547Z,9.711683
2022-10-25T05:30:35.542Z,9.711634
2022-10-25T05:31:35.523Z,9.711424
2022-10-25T05:32:35.525Z,9.711576
2022-10-25T05:33:35.508Z,9.711769
2022-10-25T05:34:35.509Z,9.711782
2022-10-25T05:35:35.501Z,9.711842
2022-10-25T05:36:35.491Z,9.711800
2022-10-25T05:37:35.479Z,9.711744
2022-10-25T05:38:37.670Z,9.711671
2022-10-25T05:39:36.501Z,9.711714
2022-10-25T05:40:35.453Z,9.711700
2022-10-25T05:41:37.164Z,9.711828
2022-10-25T05:42:35.443Z,9.711787
2022-10-25T05:43:35.439Z,9.711750
2022-10-25T05:44:35.646Z,9.711767
2022-10-25T05:45:35.420Z,9.711777
2022-10-25T05:46:35.428Z,9.711673
2022-10-25T05:47:35.401Z,9.711561
2022-10-25T05:48:35.432Z,9.711732
2022-10-25T05:49:35.393Z,9.711840
2022-10-25T05:50:35.418Z,9.711883
2022-10-25T05:51:36.515Z,9.711906
2022-10-25T05:52:36.359Z,9.711926
2022-10-25T05:53:35.355Z,9.711890
2022-10-25T05:54:35.406Z,9.712070
2022-10-25T05:55:35.339Z,9.712043
2022-10-25T05:56:35.342Z,9.711778
2022-10-25T05:57:35.328Z,9.711935
2022-10-25T05:58:35.310Z,9.712016
2022-10-25T05:59:35.319Z,9.711949
2022-10-25T06:00:35.367Z,9.711912
2022-10-25T06:01:35.423Z,9.711862
2022-10-25T06:02:35.286Z,9.711837
2022-10-25T06:03:35.274Z,9.712109
2022-10-25T06:04:35.276Z,9.711948
2022-10-25T06:05:35.256Z,9.711963
2022-10-25T06:06:35.277Z,9.711916
2022-10-25T06:07:35.245Z,9.711937
2022-10-25T06:08:35.246Z,9.711926
2022-10-25T06:09:35.231Z,9.711781
2022-10-25T06:10:35.275Z,9.711843
2022-10-25T06:11:35.209Z,9.711935
2022-10-25T06:12:35.199Z,9.712069
2022-10-25T06:13:35.193Z,9.712112
2022-10-25T06:14:35.190Z,9.711823
2022-10-25T06:15:36.056Z,9.711974
2022-10-25T06:16:35.172Z,9.712116
2022-10-25T06:17:35.154Z,9.712022
2022-10-25T06:18:35.148Z,9.711819
2022-10-25T06:19:35.148Z,9.712121
2022-10-25T06:20:35.206Z,9.711681
2022-10-25T06:21:35.129Z,9.711592
2022-10-25T06:22:35.120Z,9.711739
2022-10-25T06:23:35.123Z,9.711940
2022-10-25T06:24:35.115Z,9.711935
2022-10-25T06:25:35.097Z,9.711964
2022-10-25T06:26:35.092Z,9.712037
2022-10-25T06:27:35.080Z,9.712064
2022-10-25T06:28:35.067Z,9.711720
2022-10-25T06:29:35.073Z,9.711735
2022-10-25T06:30:35.068Z,9.711703
2022-10-25T06:31:35.645Z,9.711652
2022-10-25T06:32:35.041Z,9.711670
2022-10-25T06:33:35.045Z,9.711638
2022-10-25T06:34:35.020Z,9.711605
2022-10-25T06:35:35.014Z,9.711634
2022-10-25T06:36:35.008Z,9.711596
2022-10-25T06:37:35.004Z,9.711596
2022-10-25T06:38:35.005Z,9.711600
2022-10-25T06:39:34.989Z,9.711585
2022-10-25T06:40:34.977Z,9.711564
2022-10-25T06:41:36.022Z,9.711549
2022-10-25T06:42:34.965Z,9.711584
2022-10-25T06:43:34.938Z,9.711598
2022-10-25T06:44:35.945Z,9.711588
2022-10-25T06:45:35.645Z,9.711538
2022-10-25T06:46:40.573Z,9.711536
2022-10-25T06:47:35.916Z,9.711500
2022-10-25T06:48:34.905Z,9.711606
2022-10-25T06:49:34.904Z,9.711698
2022-10-25T06:50:34.911Z,9.711652
2022-10-25T06:51:35.570Z,9.711618
2022-10-25T06:52:34.877Z,9.711699
2022-10-25T06:53:34.865Z,9.711620
2022-10-25T06:54:34.856Z,9.711562
2022-10-25T06:55:34.848Z,9.711608
2022-10-25T06:56:34.854Z,9.711602
2022-10-25T06:57:35.563Z,9.711675
2022-10-25T06:58:34.827Z,9.711650
2022-10-25T06:59:34.821Z,9.711643
2022-10-25T07:00:34.819Z,9.711678
2022-10-25T07:01:34.926Z,9.711802
2022-10-25T07:02:34.790Z,9.711708
2022-10-25T07:03:34.795Z,9.711692
2022-10-25T07:04:34.796Z,9.711648
2022-10-25T07:05:34.775Z,9.711619
2022-10-25T07:06:34.773Z,9.711798
2022-10-25T07:07:34.759Z,9.711549
2022-10-25T07:08:34.748Z,9.711659
2022-10-25T07:09:34.738Z,9.711637
2022-10-25T07:10:34.770Z,9.711726
2022-10-25T07:11:34.732Z,9.711648
2022-10-25T07:12:34.728Z,9.711710
2022-10-25T07:13:34.743Z,9.711705
2022-10-25T07:14:34.701Z,9.711799
2022-10-25T07:15:36.415Z,9.711819
2022-10-25T07:16:34.690Z,9.711754
2022-10-25T07:17:34.684Z,9.711754
2022-10-25T07:18:34.665Z,9.711639
2022-10-25T07:19:34.657Z,9.711623
2022-10-25T07:20:34.652Z,9.711660
2022-10-25T07:21:34.660Z,9.711637
2022-10-25T07:22:34.642Z,9.711678
2022-10-25T07:23:34.630Z,9.711641
2022-10-25T07:24:34.627Z,9.711650
2022-10-25T07:25:34.627Z,9.711662
2022-10-25T07:26:34.614Z,9.711628
2022-10-25T07:27:34.598Z,9.711653
2022-10-25T07:28:34.588Z,9.711682
2022-10-25T07:29:35.581Z,9.711675
2022-10-25T07:30:34.597Z,9.711619
2022-10-25T07:31:34.699Z,9.711646
2022-10-25T07:32:37.581Z,9.711623
2022-10-25T07:33:35.555Z,9.711604
2022-10-25T07:34:34.544Z,9.711652
2022-10-25T07:35:41.971Z,9.711650
2022-10-25T07:36:36.530Z,9.711679
2022-10-25T07:37:34.543Z,9.711715
2022-10-25T07:38:34.524Z,9.711740
2022-10-25T07:39:35.085Z,9.711695
2022-10-25T07:40:34.501Z,9.711791
2022-10-25T07:41:34.492Z,9.711693
2022-10-25T07:42:34.485Z,9.711759
2022-10-25T07:43:34.485Z,9.711809
2022-10-25T07:44:34.539Z,9.711871
2022-10-25T07:45:34.461Z,9.711817
2022-10-25T07:46:34.455Z,9.711862
2022-10-25T07:47:34.462Z,9.711990
2022-10-25T07:48:34.445Z,9.711902
2022-10-25T07:49:34.427Z,9.711732
2022-10-25T07:50:34.417Z,9.711843
2022-10-25T07:51:34.413Z,9.711846
2022-10-25T07:52:34.411Z,9.711942
2022-10-25T07:53:34.406Z,9.711947
2022-10-25T07:54:34.434Z,9.711925
2022-10-25T07:55:34.377Z,9.711746
2022-10-25T07:56:34.421Z,9.711716
2022-10-25T07:57:36.101Z,9.711736
2022-10-25T07:58:34.884Z,9.712125
2022-10-25T07:59:34.346Z,9.712008
2022-10-25T08:00:34.362Z,9.711969
2022-10-25T08:01:34.403Z,9.711632
2022-10-25T08:02:34.320Z,9.711559
2022-10-25T08:03:34.321Z,9.711517
2022-10-25T08:04:34.323Z,9.711644
2022-10-25T08:05:34.294Z,9.711666
2022-10-25T08:06:34.298Z,9.711689
2022-10-25T08:07:34.280Z,9.711677
2022-10-25T08:08:34.264Z,9.711680
2022-10-25T08:09:38.279Z,9.711773
2022-10-25T08:10:35.270Z,9.711513
2022-10-25T08:11:34.246Z,9.711527
2022-10-25T08:12:34.237Z,9.711501
2022-10-25T08:13:34.232Z,9.711597
2022-10-25T08:14:36.453Z,9.711618
2022-10-25T08:15:35.213Z,9.711599
2022-10-25T08:16:34.199Z,9.711569
2022-10-25T08:17:34.209Z,9.711616
2022-10-25T08:18:34.189Z,9.711697
2022-10-25T08:19:34.207Z,9.711709
2022-10-25T08:20:56.768Z,9.711576
2022-10-25T08:21:36.170Z,9.711590
2022-10-25T08:22:34.155Z,9.711517
2022-10-25T08:23:34.148Z,9.711570
2022-10-25T08:24:34.154Z,9.711582
2022-10-25T08:25:34.145Z,9.711566
2022-10-25T08:26:36.772Z,9.711756
2022-10-25T08:27:35.135Z,9.711723
2022-10-25T08:28:34.109Z,9.711641
2022-10-25T08:29:34.113Z,9.711677
2022-10-25T08:30:34.095Z,9.711848
2022-10-25T08:31:34.100Z,9.711722
2022-10-25T08:32:34.078Z,9.711548
2022-10-25T08:33:34.077Z,9.711615
2022-10-25T08:34:34.064Z,9.711706
2022-10-25T08:35:34.116Z,9.711813
2022-10-25T08:36:34.074Z,9.712021
2022-10-25T08:37:34.074Z,9.712058
2022-10-25T08:38:34.598Z,9.711892
2022-10-25T08:39:34.020Z,9.711776
2022-10-25T08:40:34.038Z,9.711702
2022-10-25T08:41:34.227Z,9.711832
2022-10-25T08:42:33.997Z,9.712107
2022-10-25T08:43:33.996Z,9.712172
2022-10-25T08:44:33.985Z,9.712040
2022-10-25T08:45:34.013Z,9.712048
2022-10-25T08:46:33.970Z,9.711984
2022-10-25T08:47:33.956Z,9.712579
2022-10-25T08:48:33.956Z,9.712603
2022-10-25T08:49:33.947Z,9.712458
2022-10-25T08:50:33.932Z,9.711987
2022-10-25T08:51:33.940Z,9.711858
2022-10-25T08:52:33.916Z,9.711838
2022-10-25T08:53:33.913Z,9.711867
2022-10-25T08:54:33.904Z,9.711823
2022-10-25T08:55:33.900Z,9.711884
2022-10-25T08:56:37.187Z,9.712009
2022-10-25T08:57:34.882Z,9.711891
2022-10-25T08:58:33.869Z,9.711798
2022-10-25T08:59:33.862Z,9.711899
2022-10-25T09:00:34.609Z,9.711807
2022-10-25T09:01:33.998Z,9.711791
2022-10-25T09:02:34.101Z,9.711817
2022-10-25T09:03:33.881Z,9.711823
2022-10-25T09:04:33.837Z,9.711813
2022-10-25T09:05:33.814Z,9.711884
2022-10-25T09:06:34.215Z,9.711998
2022-10-25T09:07:33.795Z,9.711829
2022-10-25T09:08:33.788Z,9.711921
2022-10-25T09:09:33.786Z,9.712023
2022-10-25T09:10:33.767Z,9.711740
2022-10-25T09:11:33.767Z,9.711803
2022-10-25T09:12:33.751Z,9.711619
2022-10-25T09:14:34.688Z,9.711473
2022-10-25T09:15:35.122Z,9.711617
2022-10-25T09:16:33.729Z,9.711596
2022-10-25T09:17:33.711Z,9.711655
2022-10-25T09:18:33.707Z,9.711560
2022-10-25T09:19:33.693Z,9.711635
2022-10-25T09:20:33.692Z,9.711439
2022-10-25T09:21:33.690Z,9.711589
2022-10-25T09:22:33.675Z,9.711706
2022-10-25T09:23:33.704Z,9.711671
2022-10-25T09:24:33.684Z,9.711746
2022-10-25T09:25:33.649Z,9.711535
2022-10-25T09:26:33.660Z,9.711700
2022-10-25T09:27:33.631Z,9.711591
2022-10-25T09:28:33.636Z,9.711624
2022-10-25T09:29:33.628Z,9.711815
2022-10-25T09:30:33.621Z,9.711768
2022-10-25T09:31:33.604Z,9.711680
2022-10-25T09:32:33.588Z,9.711917
2022-10-25T09:33:33.591Z,9.711919
2022-10-25T09:34:33.576Z,9.712066
2022-10-25T09:35:33.635Z,9.712219
2022-10-25T09:36:33.559Z,9.712042
2022-10-25T09:37:33.570Z,9.712405
2022-10-25T09:38:33.614Z,9.712278
2022-10-25T09:39:33.541Z,9.712008
2022-10-25T09:40:33.527Z,9.712563
2022-10-25T09:41:33.558Z,9.712238
2022-10-25T09:42:33.513Z,9.711986
2022-10-25T09:43:33.509Z,9.711762
2022-10-25T09:44:33.500Z,9.711763
2022-10-25T09:45:33.539Z,9.712152
2022-10-25T09:46:33.494Z,9.712009
2022-10-25T09:47:33.469Z,9.712110
2022-10-25T09:48:33.532Z,9.711782
2022-10-25T09:49:33.489Z,9.711558
2022-10-25T09:50:33.478Z,9.711549
2022-10-25T09:51:33.482Z,9.711619
2022-10-25T09:52:34.198Z,9.711571
2022-10-25T09:53:33.418Z,9.711457
2022-10-25T09:54:33.414Z,9.711627
2022-10-25T09:55:33.426Z,9.711580
2022-10-25T09:56:33.393Z,9.711529
2022-10-25T09:57:33.440Z,9.711563
2022-10-25T09:58:33.377Z,9.711616
2022-10-25T09:59:33.370Z,9.711581
2022-10-25T10:00:33.370Z,9.711637
2022-10-25T10:01:33.451Z,9.711605
2022-10-25T10:02:33.438Z,9.711570
2022-10-25T10:03:34.134Z,9.711550
2022-10-25T10:04:33.326Z,9.711557
2022-10-25T10:05:33.338Z,9.711560
2022-10-25T10:06:33.366Z,9.711568
2022-10-25T10:07:33.321Z,9.711617
2022-10-25T10:08:33.326Z,9.711660
2022-10-25T10:09:33.287Z,9.711749
2022-10-25T10:10:33.304Z,9.711768
2022-10-25T10:11:33.274Z,9.711741
2022-10-25T10:12:33.271Z,9.711672
2022-10-25T10:13:33.683Z,9.711637
2022-10-25T10:14:33.260Z,9.711567
2022-10-25T10:15:33.240Z,9.711632
2022-10-25T10:16:33.243Z,9.711587
2022-10-25T10:17:33.225Z,9.711642
2022-10-25T10:18:33.202Z,9.711670
2022-10-25T10:19:34.216Z,9.711563
2022-10-25T10:20:33.217Z,9.711491
2022-10-25T10:21:33.190Z,9.711502
2022-10-25T10:22:33.201Z,9.711622
2022-10-25T10:23:33.177Z,9.711609
2022-10-25T10:24:33.176Z,9.711682
2022-10-25T10:25:33.156Z,9.711644
2022-10-25T10:26:33.155Z,9.711629
2022-10-25T10:27:33.142Z,9.711532
2022-10-25T10:28:33.133Z,9.711457
2022-10-25T10:29:33.187Z,9.711486
2022-10-25T10:30:33.116Z,9.711554
2022-10-25T10:31:33.156Z,9.711639
2022-10-25T10:32:33.129Z,9.711717
2022-10-25T10:33:33.110Z,9.711748
2022-10-25T10:34:33.100Z,9.711995
2022-10-25T10:35:33.083Z,9.711856
2022-10-25T10:36:33.054Z,9.711601
2022-10-25T10:37:34.060Z,9.711708
2022-10-25T10:38:33.045Z,9.711350
2022-10-25T10:39:33.635Z,9.711509
2022-10-25T10:40:33.041Z,9.712719
2022-10-25T10:41:33.976Z,9.712276
2022-10-25T10:42:33.012Z,9.711683
2022-10-25T10:43:33.005Z,9.712114
2022-10-25T10:44:33.003Z,9.712328
2022-10-25T10:45:33.001Z,9.711995
2022-10-25T10:46:32.996Z,9.711853
2022-10-25T10:47:32.971Z,9.711973
2022-10-25T10:48:33.005Z,9.711850
2022-10-25T10:49:32.968Z,9.711530
2022-10-25T10:50:33.162Z,9.712176
2022-10-25T10:51:43.655Z,9.712143
2022-10-25T10:52:34.942Z,9.712229
2022-10-25T10:53:32.930Z,9.712141
2022-10-25T10:54:32.918Z,9.711788
2022-10-25T10:55:32.928Z,9.711813
2022-10-25T10:56:33.646Z,9.711780
2022-10-25T10:57:32.907Z,9.711752
2022-10-25T10:58:32.928Z,9.711738
2022-10-25T10:59:32.887Z,9.711786
2022-10-25T11:00:32.870Z,9.711698
2022-10-25T11:01:33.034Z,9.711788
2022-10-25T11:02:33.138Z,9.711751
2022-10-25T11:03:32.842Z,9.711697
2022-10-25T11:04:32.854Z,9.711636
2022-10-25T11:05:32.830Z,9.711687
2022-10-25T11:06:32.834Z,9.711631
2022-10-25T11:07:32.825Z,9.711669
2022-10-25T11:08:32.817Z,9.711619
2022-10-25T11:09:32.810Z,9.711598
2022-10-25T11:10:32.793Z,9.711476
2022-10-25T11:11:32.790Z,9.711500
2022-10-25T11:12:34.165Z,9.711556
2022-10-25T11:13:32.775Z,9.711540
2022-10-25T11:14:32.755Z,9.711560
2022-10-25T11:15:32.753Z,9.711562
2022-10-25T11:16:32.742Z,9.711587
2022-10-25T11:17:32.856Z,9.711633
2022-10-25T11:18:32.738Z,9.711556
2022-10-25T11:19:32.724Z,9.711640
2022-10-25T11:20:32.715Z,9.711558
2022-10-25T11:21:33.320Z,9.711613
2022-10-25T11:22:33.146Z,9.711658
2022-10-25T11:23:32.690Z,9.711635
2022-10-25T11:24:32.680Z,9.711535
2022-10-25T11:25:32.686Z,9.711539
2022-10-25T11:26:33.654Z,9.711494
2022-10-25T11:27:34.970Z,9.711475
2022-10-25T11:28:34.167Z,9.711570
2022-10-25T11:29:32.665Z,9.711625
2022-10-25T11:30:32.626Z,9.711631
2022-10-25T11:31:32.627Z,9.711585
2022-10-25T11:32:32.670Z,9.711555
2022-10-25T11:33:32.704Z,9.711565
2022-10-25T11:34:32.607Z,9.711650
2022-10-25T11:35:32.635Z,9.711630
2022-10-25T11:36:32.603Z,9.711676
2022-10-25T11:37:32.610Z,9.711679
2022-10-25T11:38:32.585Z,9.711710
2022-10-25T11:39:32.568Z,9.711679
2022-10-25T11:40:32.561Z,9.711697
2022-10-25T11:41:32.559Z,9.711687
2022-10-25T11:42:32.530Z,9.711678
2022-10-25T11:43:32.534Z,9.711683
2022-10-25T11:44:32.518Z,9.711708
2022-10-25T11:45:32.513Z,9.711760
2022-10-25T11:46:32.499Z,9.711740
2022-10-25T11:47:32.495Z,9.711752
2022-10-25T11:48:32.495Z,9.711730
2022-10-25T11:49:32.580Z,9.711752
2022-10-25T11:50:32.484Z,9.711752
2022-10-25T11:51:32.465Z,9.711750
2022-10-25T11:52:32.467Z,9.711742
2022-10-25T11:53:32.458Z,9.711791
2022-10-25T11:54:32.449Z,9.711761
2022-10-25T11:55:32.445Z,9.711781
2022-10-25T11:56:32.475Z,9.711745
2022-10-25T11:57:32.429Z,9.711714
2022-10-25T11:58:33.169Z,9.711706
2022-10-25T11:59:32.410Z,9.711728
2022-10-25T12:00:32.413Z,9.711690
2022-10-25T12:01:32.454Z,9.711703
2022-10-25T12:02:32.416Z,9.711736
2022-10-25T12:03:32.379Z,9.711680
2022-10-25T12:04:33.702Z,9.711718
2022-10-25T12:05:33.468Z,9.711684